Pine Neck, New York
Current Conditions -  °F | °C
As of 1:53 PM on Friday 31 Oct 2014 (Local Time) from KFOK Reporting Station
Clear Clear  
Wind Chill: 13°   Ceiling: Unl
Heat Index: 13°   Visibility: 10mi
Dew Point:   Wind: 12mph
Humidity: 67%   Direction: 40°NE
Pressure: 29.93"   Gusts: 21mph
Location:  40.9692°N, 72.306°W
Report Text: KFOK 311753Z 04010G18KT 10SM CLR 13/07 A2993 RMK AO2 SLP135 T01330072 10139 20017 58024
Loading
Personal Weather Stations






























Interactive Weather Map
Tropical Storm Tracking
New forecast layout! Learn more

10-Day Weather Forecast

Advertisements
Track Severe Weather on mobile